createdAt,value
2023-01-29T00:02:12.586Z,100360.05
2023-01-29T00:05:13.028Z,100368.02
2023-01-29T00:08:08.750Z,100374.75
2023-01-29T00:11:02.980Z,100378.88
2023-01-29T00:13:51.128Z,100378.91
2023-01-29T00:16:39.562Z,100378.98
2023-01-29T00:19:27.751Z,100381.15
2023-01-29T00:22:15.963Z,100382.81
2023-01-29T00:25:03.852Z,100386.44
2023-01-29T00:27:52.192Z,100385.90
2023-01-29T00:30:40.860Z,100390.72
2023-01-29T00:33:29.434Z,100388.88
2023-01-29T00:36:20.369Z,100391.02
2023-01-29T00:39:11.045Z,100394.09
2023-01-29T00:42:17.271Z,100389.33
2023-01-29T00:45:06.054Z,100390.16
2023-01-29T00:47:53.992Z,100398.91
2023-01-29T00:50:42.739Z,100405.19
2023-01-29T00:53:30.547Z,100407.61
2023-01-29T00:56:18.231Z,100402.73
2023-01-29T00:59:06.110Z,100394.50
2023-01-29T01:02:12.733Z,100389.27
2023-01-29T01:05:03.203Z,100384.54
2023-01-29T01:07:54.416Z,100388.25
2023-01-29T01:10:42.652Z,100395.70
2023-01-29T01:13:34.062Z,100397.73
2023-01-29T01:16:23.021Z,100390.30
2023-01-29T01:19:11.156Z,100385.78
2023-01-29T01:21:59.083Z,100383.19
2023-01-29T01:24:47.724Z,100379.42
2023-01-29T01:27:37.859Z,100364.71
2023-01-29T01:30:27.624Z,100363.05
2023-01-29T01:33:16.681Z,100366.70
2023-01-29T01:36:09.934Z,100357.50
2023-01-29T01:38:58.798Z,100344.06
2023-01-29T01:41:47.191Z,100328.41
2023-01-29T01:44:53.583Z,100319.25
2023-01-29T01:47:49.273Z,100315.45
2023-01-29T01:50:48.895Z,100315.11
2023-01-29T01:53:43.761Z,100313.11
2023-01-29T01:56:38.670Z,100307.91
2023-01-29T01:59:26.730Z,100303.85
2023-01-29T02:02:35.221Z,100294.57
2023-01-29T02:05:42.321Z,100289.30
2023-01-29T02:09:22.699Z,100287.23
2023-01-29T02:12:16.409Z,100287.17
2023-01-29T02:15:07.039Z,100277.87
2023-01-29T02:17:55.300Z,100275.41
2023-01-29T02:21:15.304Z,100265.51
2023-01-29T02:24:52.852Z,100262.49
2023-01-29T02:27:50.002Z,100258.86
2023-01-29T02:30:53.114Z,100253.91
2023-01-29T02:34:52.935Z,100256.27
2023-01-29T02:38:21.602Z,100258.00
2023-01-29T02:41:24.065Z,100258.19
2023-01-29T02:44:24.899Z,100255.46
2023-01-29T02:47:21.543Z,100249.65
2023-01-29T02:50:36.428Z,100245.94
2023-01-29T02:53:44.678Z,100249.09
2023-01-29T02:57:16.411Z,100248.58
2023-01-29T03:00:26.583Z,100245.91
2023-01-29T03:03:39.705Z,100253.20
2023-01-29T03:06:53.342Z,100252.27
2023-01-29T03:09:50.328Z,100251.33
2023-01-29T03:12:41.070Z,100252.80
2023-01-29T03:15:39.341Z,100231.71
2023-01-29T03:19:32.119Z,100244.06
2023-01-29T03:22:23.443Z,100233.79
2023-01-29T03:25:32.974Z,100230.18
2023-01-29T03:28:42.571Z,100236.91
2023-01-29T03:31:51.168Z,100229.67
2023-01-29T03:34:46.825Z,100229.42
2023-01-29T03:37:48.320Z,100226.31
2023-01-29T03:40:55.199Z,100221.05
2023-01-29T03:44:13.021Z,100213.96
2023-01-29T03:47:13.835Z,100215.17
2023-01-29T03:50:38.662Z,100218.91
2023-01-29T03:54:05.168Z,100213.45
2023-01-29T03:57:17.063Z,100193.02
2023-01-29T04:00:14.871Z,100193.02
2023-01-29T04:03:34.237Z,100193.73
2023-01-29T04:06:30.056Z,100190.29
2023-01-29T04:09:34.314Z,100178.67
2023-01-29T04:12:31.943Z,100175.15
2023-01-29T04:15:23.383Z,100182.54
2023-01-29T04:18:11.401Z,100172.32
2023-01-29T04:21:19.854Z,100171.45
2023-01-29T04:24:08.980Z,100158.73
2023-01-29T04:27:15.886Z,100157.40
2023-01-29T04:30:37.276Z,100164.50
2023-01-29T04:34:04.803Z,100160.23
2023-01-29T04:37:14.780Z,100159.67
2023-01-29T04:40:27.703Z,100162.50
2023-01-29T04:43:31.066Z,100163.08
2023-01-29T04:46:37.496Z,100163.46
2023-01-29T04:50:30.123Z,100162.86
2023-01-29T04:53:50.694Z,100166.08
2023-01-29T04:56:55.109Z,100156.62
2023-01-29T04:59:48.919Z,100147.50
2023-01-29T05:02:39.571Z,100134.56
2023-01-29T05:05:28.813Z,100137.34
2023-01-29T05:08:21.676Z,100136.66
2023-01-29T05:11:10.545Z,100135.66
2023-01-29T05:13:59.873Z,100133.37
2023-01-29T05:16:52.745Z,100134.06
2023-01-29T05:19:42.069Z,100133.17
2023-01-29T05:22:30.831Z,100135.60
2023-01-29T05:25:27.291Z,100130.63
2023-01-29T05:28:19.021Z,100122.56
2023-01-29T05:31:07.245Z,100117.84
2023-01-29T05:33:55.995Z,100118.54
2023-01-29T05:36:43.878Z,100107.55
2023-01-29T05:39:31.796Z,100112.34
2023-01-29T05:42:19.829Z,100116.61
2023-01-29T05:45:09.283Z,100111.77
2023-01-29T05:47:59.818Z,100104.70
2023-01-29T05:50:48.366Z,100109.12
2023-01-29T05:53:36.298Z,100111.46
2023-01-29T05:56:25.423Z,100116.91
2023-01-29T05:59:13.507Z,100114.71
2023-01-29T06:02:01.188Z,100109.16
2023-01-29T06:04:52.723Z,100110.97
2023-01-29T06:07:45.259Z,100103.66
2023-01-29T06:10:33.338Z,100109.30
2023-01-29T06:13:23.422Z,100115.41
2023-01-29T06:16:14.167Z,100104.95
2023-01-29T06:19:02.136Z,100099.70
2023-01-29T06:21:49.851Z,100104.02
2023-01-29T06:24:37.804Z,100102.02
2023-01-29T06:27:25.556Z,100100.39
2023-01-29T06:30:14.444Z,100098.40
2023-01-29T06:33:02.904Z,100087.31
2023-01-29T06:36:00.407Z,100094.11
2023-01-29T06:38:48.369Z,100095.13
2023-01-29T06:41:36.092Z,100092.67
2023-01-29T06:44:23.909Z,100087.30
2023-01-29T06:47:12.122Z,100085.36
2023-01-29T06:49:59.983Z,100080.92
2023-01-29T06:52:47.758Z,100081.33
2023-01-29T06:55:35.879Z,100081.65
2023-01-29T06:58:23.927Z,100079.89
2023-01-29T07:01:25.481Z,100074.92
2023-01-29T07:04:21.133Z,100073.41
2023-01-29T07:07:13.460Z,100072.17
2023-01-29T07:10:01.755Z,100072.05
2023-01-29T07:12:49.911Z,100065.99
2023-01-29T07:15:37.870Z,100073.98
2023-01-29T07:18:26.061Z,100066.38
2023-01-29T07:21:14.307Z,100068.06
2023-01-29T07:24:01.854Z,100068.90
2023-01-29T07:26:49.775Z,100065.90
2023-01-29T07:29:37.572Z,100064.10
2023-01-29T07:32:29.282Z,100058.21
2023-01-29T07:35:17.218Z,100052.18
2023-01-29T07:38:05.357Z,100047.33
2023-01-29T07:40:53.967Z,100048.98
2023-01-29T07:43:42.050Z,100049.19
2023-01-29T07:46:30.193Z,100042.91
2023-01-29T07:49:18.081Z,100048.17
2023-01-29T07:52:06.014Z,100046.18
2023-01-29T07:54:53.841Z,100044.58
2023-01-29T07:57:42.153Z,100042.59
2023-01-29T08:00:32.181Z,100039.38
2023-01-29T08:03:20.954Z,100043.16
2023-01-29T08:06:09.019Z,100046.20
2023-01-29T08:08:57.579Z,100044.42
2023-01-29T08:11:45.546Z,100041.39
2023-01-29T08:14:34.136Z,100043.30
2023-01-29T08:17:22.301Z,100032.36
2023-01-29T08:20:11.481Z,100035.41
2023-01-29T08:23:06.695Z,100033.05
2023-01-29T08:25:54.460Z,100030.52
2023-01-29T08:28:42.591Z,100030.39
2023-01-29T08:31:30.278Z,100029.75
2023-01-29T08:34:18.500Z,100028.13
2023-01-29T08:37:06.218Z,100021.13
2023-01-29T08:39:54.178Z,100025.49
2023-01-29T08:42:42.152Z,100036.59
2023-01-29T08:45:31.303Z,100035.66
2023-01-29T08:48:19.976Z,100034.41
2023-01-29T08:51:08.263Z,100032.36
2023-01-29T08:53:56.709Z,100031.14
2023-01-29T08:56:45.421Z,100022.83
2023-01-29T08:59:34.289Z,100015.30
2023-01-29T09:02:22.010Z,100009.40
2023-01-29T09:05:10.695Z,100003.39
2023-01-29T09:07:59.414Z,100003.17
2023-01-29T09:10:47.197Z,99999.39
2023-01-29T09:13:35.268Z,100005.02
2023-01-29T09:16:22.959Z,100009.30
2023-01-29T09:19:11.339Z,100011.09
2023-01-29T09:21:59.144Z,100019.55
2023-01-29T09:24:47.293Z,100021.02
2023-01-29T09:27:35.617Z,100019.95
2023-01-29T09:30:23.440Z,100007.90
2023-01-29T09:33:12.151Z,100008.67
2023-01-29T09:36:00.044Z,100009.32
2023-01-29T09:38:48.301Z,100004.52
2023-01-29T09:42:00.310Z,99997.80
2023-01-29T09:45:15.191Z,100000.67
2023-01-29T09:48:05.940Z,100002.08
2023-01-29T09:50:57.926Z,100001.27
2023-01-29T09:53:58.790Z,99996.98
2023-01-29T09:56:50.970Z,99993.38
2023-01-29T09:59:39.174Z,99984.61
2023-01-29T10:03:09.351Z,99982.81
2023-01-29T10:06:24.746Z,99970.35
2023-01-29T10:09:52.913Z,99975.55
2023-01-29T10:13:24.770Z,99976.00
2023-01-29T10:16:39.024Z,99977.72
2023-01-29T10:20:03.904Z,99975.27
2023-01-29T10:23:13.712Z,99972.58
2023-01-29T10:26:02.968Z,99959.79
2023-01-29T10:28:54.721Z,99953.08
2023-01-29T10:31:44.871Z,99950.66
2023-01-29T10:34:41.549Z,99937.01
2023-01-29T10:37:41.567Z,99938.80
2023-01-29T10:40:47.193Z,99934.35
2023-01-29T10:43:46.069Z,99923.74
2023-01-29T10:46:55.152Z,99917.19
2023-01-29T10:50:23.131Z,99917.97
2023-01-29T10:53:25.675Z,99909.16
2023-01-29T10:56:23.113Z,99906.58
2023-01-29T10:59:29.470Z,99909.40
2023-01-29T11:02:22.176Z,99903.45
2023-01-29T11:05:27.899Z,99906.67
2023-01-29T11:08:22.502Z,99898.23
2023-01-29T11:11:22.046Z,99896.80
2023-01-29T11:14:21.614Z,99888.73
2023-01-29T11:17:19.901Z,99879.31
2023-01-29T11:20:45.650Z,99876.40
2023-01-29T11:23:34.243Z,99873.95
2023-01-29T11:26:24.057Z,99868.79
2023-01-29T11:29:29.971Z,99869.84
2023-01-29T11:32:23.941Z,99866.27
2023-01-29T11:35:22.689Z,99864.17
2023-01-29T11:38:16.951Z,99860.94
2023-01-29T11:41:22.578Z,99857.31
2023-01-29T11:44:42.898Z,99855.18
2023-01-29T11:47:31.227Z,99847.71
2023-01-29T11:50:34.692Z,99856.34
2023-01-29T11:53:41.289Z,99856.70
2023-01-29T11:56:34.292Z,99859.02
2023-01-29T11:59:39.942Z,99856.52
2023-01-29T12:02:32.284Z,99849.00
2023-01-29T12:05:24.728Z,99851.30
2023-01-29T12:08:18.476Z,99843.55
2023-01-29T12:11:24.636Z,99839.45
2023-01-29T12:14:34.325Z,99824.20
2023-01-29T12:17:26.414Z,99825.10
2023-01-29T12:20:33.618Z,99816.92
2023-01-29T12:23:31.009Z,99815.58
2023-01-29T12:26:34.107Z,99811.89
2023-01-29T12:29:42.032Z,99792.86
2023-01-29T12:32:56.832Z,99797.55
2023-01-29T12:35:50.838Z,99783.73
2023-01-29T12:38:38.885Z,99772.40
2023-01-29T12:41:52.539Z,99771.30
2023-01-29T12:44:49.070Z,99773.42
2023-01-29T12:48:00.868Z,99766.73
2023-01-29T12:50:50.317Z,99766.05
2023-01-29T12:53:48.961Z,99760.24
2023-01-29T12:56:47.310Z,99749.08
2023-01-29T12:59:51.983Z,99745.19
2023-01-29T13:02:46.352Z,99746.86
2023-01-29T13:05:53.095Z,99741.84
2023-01-29T13:08:54.969Z,99738.84
2023-01-29T13:12:10.589Z,99737.85
2023-01-29T13:15:16.182Z,99744.39
2023-01-29T13:18:45.570Z,99742.64
2023-01-29T13:21:43.997Z,99745.30
2023-01-29T13:24:44.358Z,99739.27
2023-01-29T13:27:37.503Z,99746.58
2023-01-29T13:30:37.048Z,99741.34
2023-01-29T13:33:25.380Z,99746.44
2023-01-29T13:36:23.446Z,99739.09
2023-01-29T13:39:26.175Z,99729.06
2023-01-29T13:42:22.207Z,99727.21
2023-01-29T13:45:21.338Z,99734.36
2023-01-29T13:48:32.510Z,99736.00
2023-01-29T13:51:27.171Z,99732.98
2023-01-29T13:54:24.435Z,99732.02
2023-01-29T13:57:55.982Z,99737.02
2023-01-29T14:00:44.329Z,99735.61
2023-01-29T14:03:39.994Z,99738.52
2023-01-29T14:06:44.397Z,99735.82
2023-01-29T14:09:38.399Z,99730.60
2023-01-29T14:12:32.207Z,99725.44
2023-01-29T14:15:41.976Z,99729.91
2023-01-29T14:18:32.859Z,99737.13
2023-01-29T14:21:31.430Z,99740.08
2023-01-29T14:24:24.943Z,99732.73
2023-01-29T14:27:23.018Z,99728.52
2023-01-29T14:30:18.810Z,99713.88
2023-01-29T14:33:18.765Z,99714.21
2023-01-29T14:36:14.039Z,99713.70
2023-01-29T14:39:01.729Z,99712.60
2023-01-29T14:41:51.573Z,99717.06
2023-01-29T14:44:45.476Z,99714.71
2023-01-29T14:47:33.736Z,99710.77
2023-01-29T14:50:31.987Z,99707.23
2023-01-29T14:53:35.222Z,99707.27
2023-01-29T14:56:33.768Z,99700.27
2023-01-29T14:59:38.039Z,99699.20
2023-01-29T15:02:39.351Z,99700.77
2023-01-29T15:05:33.004Z,99697.55
2023-01-29T15:08:38.977Z,99689.92
2023-01-29T15:12:33.542Z,99682.22
2023-01-29T15:15:55.213Z,99665.20
2023-01-29T15:18:43.862Z,99665.78
2023-01-29T15:21:31.707Z,99658.63
2023-01-29T15:24:19.907Z,99658.34
2023-01-29T15:27:20.148Z,99657.02
2023-01-29T15:30:14.733Z,99655.23
2023-01-29T15:33:04.000Z,99655.98
2023-01-29T15:36:07.313Z,99649.63
2023-01-29T15:39:22.709Z,99643.41
2023-01-29T15:42:21.744Z,99634.80
2023-01-29T15:45:27.461Z,99636.38
2023-01-29T15:48:20.907Z,99638.85
2023-01-29T15:51:16.125Z,99645.73
2023-01-29T15:54:09.943Z,99644.44
2023-01-29T15:56:58.487Z,99642.59
2023-01-29T15:59:46.321Z,99636.89
2023-01-29T16:02:42.125Z,99627.36
2023-01-29T16:05:33.062Z,99623.17
2023-01-29T16:08:26.995Z,99620.34
2023-01-29T16:11:18.028Z,99622.24
2023-01-29T16:14:07.718Z,99616.38
2023-01-29T16:16:55.701Z,99617.23
2023-01-29T16:19:43.472Z,99611.46
2023-01-29T16:22:37.948Z,99600.46
2023-01-29T16:25:31.469Z,99600.85
2023-01-29T16:28:19.961Z,99597.31
2023-01-29T16:31:08.151Z,99599.89
2023-01-29T16:33:59.172Z,99594.74
2023-01-29T16:36:48.715Z,99595.70
2023-01-29T16:39:45.297Z,99594.69
2023-01-29T16:42:32.992Z,99591.02
2023-01-29T16:45:30.823Z,99579.64
2023-01-29T16:48:30.799Z,99584.34
2023-01-29T16:51:37.223Z,99574.41
2023-01-29T16:54:27.700Z,99568.45
2023-01-29T16:57:31.376Z,99570.66
2023-01-29T17:00:27.641Z,99566.94
2023-01-29T17:03:18.242Z,99566.20
2023-01-29T17:06:23.390Z,99561.66
2023-01-29T17:09:38.419Z,99560.80
2023-01-29T17:12:29.379Z,99557.32
2023-01-29T17:15:47.053Z,99552.97
2023-01-29T17:18:35.185Z,99551.90
2023-01-29T17:21:23.641Z,99552.45
2023-01-29T17:24:11.688Z,99547.90
2023-01-29T17:27:01.392Z,99546.49
2023-01-29T17:29:52.038Z,99544.27
2023-01-29T17:32:44.042Z,99541.06
2023-01-29T17:35:32.869Z,99532.81
2023-01-29T17:38:26.279Z,99529.30
2023-01-29T17:41:22.423Z,99515.23
2023-01-29T17:44:10.557Z,99508.94
2023-01-29T17:46:58.659Z,99500.65
2023-01-29T17:49:48.601Z,99497.22
2023-01-29T17:52:36.750Z,99492.58
2023-01-29T17:55:24.632Z,99485.02
2023-01-29T17:58:23.882Z,99480.58
2023-01-29T18:01:11.904Z,99472.15
2023-01-29T18:04:00.070Z,99463.41
2023-01-29T18:06:51.391Z,99458.74
2023-01-29T18:09:39.355Z,99461.23
2023-01-29T18:12:27.259Z,99454.15
2023-01-29T18:15:16.294Z,99451.66
2023-01-29T18:18:06.409Z,99449.42
2023-01-29T18:20:54.346Z,99444.23
2023-01-29T18:23:43.866Z,99451.07
2023-01-29T18:26:31.774Z,99441.36
2023-01-29T18:29:19.730Z,99437.23
2023-01-29T18:32:07.849Z,99430.59
2023-01-29T18:34:55.709Z,99425.04
2023-01-29T18:37:44.410Z,99421.21
2023-01-29T18:40:32.703Z,99417.39
2023-01-29T18:43:20.706Z,99414.45
2023-01-29T18:46:09.293Z,99403.00
2023-01-29T18:48:57.647Z,99397.65
2023-01-29T18:51:45.795Z,99388.65
2023-01-29T18:54:33.663Z,99379.30
2023-01-29T18:58:28.186Z,99371.46
2023-01-29T19:00:34.342Z,99369.63
2023-01-29T19:03:25.648Z,99363.36
2023-01-29T19:06:14.106Z,99359.13
2023-01-29T19:09:02.356Z,99356.23
2023-01-29T19:11:50.231Z,99344.34
2023-01-29T19:14:38.487Z,99340.09
2023-01-29T19:17:27.089Z,99333.92
2023-01-29T19:20:15.684Z,99328.02
2023-01-29T19:23:06.751Z,99325.14
2023-01-29T19:25:57.821Z,99319.69
2023-01-29T19:28:45.975Z,99313.46
2023-01-29T19:31:33.972Z,99315.90
2023-01-29T19:34:22.378Z,99299.84
2023-01-29T19:37:10.621Z,99314.29
2023-01-29T19:39:58.621Z,99305.34
2023-01-29T19:42:46.691Z,99301.15
2023-01-29T19:45:43.143Z,99295.45
2023-01-29T19:48:40.943Z,99281.86
2023-01-29T19:51:29.374Z,99282.36
2023-01-29T19:54:17.402Z,99273.55
2023-01-29T19:57:09.047Z,99264.05
2023-01-29T20:00:01.229Z,99255.95
2023-01-29T20:02:52.327Z,99245.56
2023-01-29T20:05:40.539Z,99240.48
2023-01-29T20:08:28.714Z,99232.41
2023-01-29T20:11:20.769Z,99219.85
2023-01-29T20:14:13.741Z,99225.09
2023-01-29T20:17:01.723Z,99215.23
2023-01-29T20:19:49.712Z,99219.04
2023-01-29T20:22:37.767Z,99222.70
2023-01-29T20:25:25.362Z,99211.23
2023-01-29T20:28:15.931Z,99207.64
2023-01-29T20:31:07.735Z,99208.57
2023-01-29T20:33:55.991Z,99201.69
2023-01-29T20:36:43.964Z,99205.77
2023-01-29T20:39:32.333Z,99206.70
2023-01-29T20:42:20.238Z,99202.22
2023-01-29T20:45:08.686Z,99196.59
2023-01-29T20:47:58.039Z,99194.29
2023-01-29T20:50:45.855Z,99192.27
2023-01-29T20:53:34.255Z,99178.69
2023-01-29T20:56:32.093Z,99177.79
2023-01-29T20:59:30.015Z,99170.57
2023-01-29T21:02:17.827Z,99169.34
2023-01-29T21:05:07.214Z,99161.17
2023-01-29T21:07:55.751Z,99159.21
2023-01-29T21:10:45.297Z,99151.13
2023-01-29T21:13:33.483Z,99136.02
2023-01-29T21:16:21.811Z,99140.09
2023-01-29T21:19:14.813Z,99128.81
2023-01-29T21:22:03.029Z,99123.64
2023-01-29T21:24:52.705Z,99122.45
2023-01-29T21:27:40.682Z,99112.73
2023-01-29T21:30:28.744Z,99098.68
2023-01-29T21:33:16.781Z,99088.95
2023-01-29T21:36:05.575Z,99078.88
2023-01-29T21:38:53.662Z,99066.11
2023-01-29T21:41:59.944Z,99074.70
2023-01-29T21:44:47.804Z,99066.00
2023-01-29T21:47:35.679Z,99070.94
2023-01-29T21:50:23.898Z,99066.89
2023-01-29T21:53:11.552Z,99065.83
2023-01-29T21:56:04.873Z,99062.06
2023-01-29T21:58:53.001Z,99057.50
2023-01-29T22:01:41.381Z,99052.12
2023-01-29T22:04:29.579Z,99057.10
2023-01-29T22:07:17.511Z,99048.44
2023-01-29T22:10:06.306Z,99042.32
2023-01-29T22:12:54.282Z,99032.45
2023-01-29T22:15:42.376Z,99031.22
2023-01-29T22:18:30.234Z,99022.31
2023-01-29T22:21:18.037Z,99012.38
2023-01-29T22:24:07.578Z,99001.69
2023-01-29T22:26:55.900Z,98993.47
2023-01-29T22:29:44.062Z,98990.02
2023-01-29T22:32:33.380Z,98982.30
2023-01-29T22:35:21.240Z,98975.83
2023-01-29T22:38:09.174Z,98971.80
2023-01-29T22:40:58.063Z,98967.02
2023-01-29T22:43:46.018Z,98956.56
2023-01-29T22:46:33.977Z,98942.19
2023-01-29T22:49:23.188Z,98945.01
2023-01-29T22:52:11.201Z,98936.58
2023-01-29T22:54:59.175Z,98930.44
2023-01-29T22:57:50.147Z,98914.36
2023-01-29T23:00:37.755Z,98898.14
2023-01-29T23:03:26.075Z,98893.52
2023-01-29T23:06:16.271Z,98889.48
2023-01-29T23:09:04.346Z,98886.63
2023-01-29T23:11:52.573Z,98873.34
2023-01-29T23:14:40.954Z,98878.67
2023-01-29T23:17:29.059Z,98867.07
2023-01-29T23:20:20.714Z,98865.52
2023-01-29T23:23:08.521Z,98855.41
2023-01-29T23:26:19.113Z,98845.33
2023-01-29T23:29:06.967Z,98828.55
2023-01-29T23:31:54.803Z,98829.98
2023-01-29T23:34:43.075Z,98821.89
2023-01-29T23:37:30.738Z,98812.49
2023-01-29T23:40:18.949Z,98805.20
2023-01-29T23:43:07.268Z,98789.09
2023-01-29T23:45:56.008Z,98788.28
2023-01-29T23:48:43.894Z,98781.39
2023-01-29T23:51:31.885Z,98786.85
2023-01-29T23:54:19.893Z,98777.55
2023-01-29T23:57:07.992Z,98777.94
2023-01-29T23:59:55.887Z,98771.88
